Data for 04/17/2006

Time Sea-Level Adjusted Pressure Absolute Pressure Temperature Relative Humidity Dew Point   
(mb) (inHg) (mb) (inHg) (C) (F) (%) (C) (F)
00:05 1008 29.77 838 24.75 2.4 36.3 95 1.6 34.9
00:10 1008 29.77 837 24.72 2.3 36.1 96 1.6 35
00:15 1008 29.77 837 24.72 2.1 35.9 96 1.6 34.9
00:20 1008 29.77 837 24.72 2.2 35.9 96 1.7 35
00:25 1007 29.74 837 24.72 2.2 35.9 96 1.7 35
00:30 1007 29.74 836 24.69 2.3 36.1 96 1.7 35
00:35 1007 29.74 836 24.69 2.2 36 96 1.7 35.1
00:40 1007 29.74 836 24.69 2.1 35.9 96 1.6 34.8
00:45 1006 29.71 836 24.69 2 35.6 96 1.5 34.6
00:50 1006 29.71 835 24.66 1.9 35.4 96 1.4 34.5
00:55 1007 29.74 836 24.69 1.9 35.4 96 1.4 34.5
01:00 1007 29.74 836 24.69 1.9 35.4 96 1.3 34.4
01:05 1007 29.74 836 24.69 1.9 35.3 96 1.3 34.3
01:10 1007 29.74 836 24.69 1.8 35.3 96 1.3 34.3
01:15 1007 29.74 836 24.69 1.8 35.2 96 1.3 34.3
01:20 1007 29.74 836 24.69 1.8 35.2 96 1.2 34.1
01:25 1006 29.71 836 24.69 1.8 35.2 96 1.2 34.1
01:30 1006 29.71 836 24.69 1.7 35 96 1.1 34
01:35 1006 29.71 836 24.69 1.7 35 96 1.1 33.9
01:40 1006 29.71 835 24.66 1.6 34.9 96 1 33.9
01:45 1006 29.71 835 24.66 1.6 34.9 95 1 33.7
01:50 1006 29.71 835 24.66 1.6 34.9 95 1 33.7
01:55 1006 29.71 835 24.66 1.6 34.9 96 1 33.8
02:00 1006 29.71 835 24.66 1.5 34.8 96 0.9 33.6
02:05 1006 29.71 835 24.66 1.5 34.7 96 0.9 33.6
02:10 1006 29.71 835 24.66 1.5 34.8 96 0.9 33.6
02:15 1006 29.71 836 24.69 1.8 35.2 95 1 33.9
02:20 1006 29.71 836 24.69 2 35.6 94 1.1 34
02:25 1006 29.71 835 24.66 1.9 35.5 94 1.1 33.9
02:30 1006 29.71 835 24.66 2.2 36 93 1.2 34.2
02:35 1006 29.71 835 24.66 1.9 35.4 96 1.3 34.3
02:40 1006 29.71 835 24.66 1.8 35.2 96 1.3 34.3
02:45 1007 29.74 836 24.69 1.8 35.2 96 1.3 34.3
02:50 1007 29.74 836 24.69 1.8 35.2 97 1.4 34.6
02:55 1006 29.71 836 24.69 1.9 35.4 97 1.4 34.6
03:00 1006 29.71 836 24.69 1.9 35.4 97 1.5 34.7
03:05 1006 29.71 836 24.69 1.9 35.4 97 1.5 34.6
03:10 1006 29.71 836 24.69 1.9 35.5 97 1.4 34.6
03:15 1006 29.71 836 24.69 1.9 35.5 96 1.4 34.5
03:20 1006 29.71 836 24.69 2 35.7 96 1.5 34.7
03:25 1007 29.74 836 24.69 2 35.7 95 1.4 34.5
03:30 1006 29.71 836 24.69 2 35.7 95 1.3 34.4
03:35 1006 29.71 835 24.66 2 35.7 95 1.3 34.3
03:40 1006 29.71 835 24.66 2.1 35.8 95 1.3 34.4
03:45 1006 29.71 836 24.69 2.1 35.8 94 1.3 34.3
03:50 1007 29.74 836 24.69 2 35.5 95 1.2 34.2
03:55 1007 29.74 836 24.69 2 35.6 95 1.2 34.2
04:00 1007 29.74 836 24.69 1.9 35.5 95 1.2 34.1
04:05 1007 29.74 836 24.69 1.9 35.4 95 1.2 34.1
04:10 1007 29.74 836 24.69 1.8 35.2 96 1.1 34
04:15 1007 29.74 836 24.69 1.7 35.1 96 1.1 34
04:20 1007 29.74 836 24.69 1.7 35 96 1 33.8
04:25 1007 29.74 836 24.69 1.5 34.7 96 0.9 33.6
04:30 1007 29.74 836 24.69 1.3 34.3 96 0.6 33.2
04:35 1007 29.74 836 24.69 1.1 33.9 96 0.5 32.9
04:40 1007 29.74 836 24.69 0.9 33.6 96 0.4 32.7
04:45 1007 29.74 836 24.69 0.8 33.4 97 0.3 32.5
04:50 1007 29.74 836 24.69 0.7 33.2 97 0.2 32.4
04:55 1007 29.74 836 24.69 0.6 33.1 97 0.2 32.4
05:00 1007 29.74 836 24.69 0.6 33.1 97 0.3 32.5
05:05 1007 29.74 836 24.69 0.6 33.1 98 0.3 32.5
05:10 1007 29.74 836 24.69 0.6 33.1 97 0.2 32.4
05:15 1007 29.74 836 24.69 0.5 32.9 98 0.2 32.4
05:20 1007 29.74 836 24.69 0.4 32.8 98 0.2 32.3
05:25 1007 29.74 836 24.69 0.4 32.7 98 0.1 32.3
05:30 1007 29.74 836 24.69 0.3 32.5 98 0.1 32.1
05:35 1007 29.74 836 24.69 0.3 32.5 99 0.1 32.2
05:40 1007 29.74 836 24.69 0.2 32.4 99 0.1 32.1
05:45 1007 29.74 836 24.69 0.2 32.3 99 0.1 32.1
05:50 1007 29.74 836 24.69 0.2 32.3 99 0.1 32.2
05:55 1007 29.74 836 24.69 0.2 32.4 99 0.2 32.3
06:00 1007 29.74 836 24.69 0.2 32.4 99 0.1 32.2
06:05 1007 29.74 836 24.69 0.3 32.5 100 0.2 32.4
06:10 1007 29.74 836 24.69 0.2 32.4 100 0.2 32.3
06:15 1007 29.74 836 24.69 0.2 32.4 100 0.2 32.3
06:20 1007 29.74 836 24.69 0.3 32.5 100 0.3 32.5
06:25 1007 29.74 836 24.69 0.3 32.5 100 0.2 32.4
06:30 1007 29.74 836 24.69 0.3 32.6 100 0.3 32.5
06:35 1007 29.74 836 24.69 0.4 32.7 100 0.3 32.6
06:40 1007 29.74 836 24.69 0.4 32.6 100 0.3 32.5
06:45 1007 29.74 837 24.72 0.3 32.6 100 0.3 32.5
06:50 1007 29.74 837 24.72 0.4 32.6 100 0.3 32.5
06:55 1008 29.77 837 24.72 0.3 32.5 100 0.2 32.4
07:00 1007 29.74 837 24.72 0.3 32.5 100 0.2 32.4
07:05 1008 29.77 837 24.72 0.3 32.6 100 0.3 32.5
07:10 1007 29.74 837 24.72 0.3 32.6 100 0.3 32.5
07:15 1008 29.77 837 24.72 0.4 32.7 100 0.3 32.6
07:20 1008 29.77 837 24.72 0.6 33.1 99 0.5 32.9
07:25 1008 29.77 837 24.72 0.6 33.1 99 0.5 32.8
07:30 1008 29.77 837 24.72 0.6 33.1 98 0.3 32.6
07:35 1008 29.77 837 24.72 0.5 32.9 98 0.2 32.4
07:40 1008 29.77 837 24.72 0.5 32.8 98 0.2 32.4
07:45 1008 29.77 837 24.72 0.5 33 99 0.3 32.6
07:50 1008 29.77 837 24.72 0.5 32.9 98 0.3 32.5
07:55 1008 29.77 837 24.72 0.4 32.7 99 0.2 32.4
08:00 1008 29.77 837 24.72 0.5 32.8 99 0.3 32.5
08:05 1008 29.77 837 24.72 0.4 32.7 99 0.2 32.3
08:10 1008 29.77 837 24.72 0.3 32.6 99 0.2 32.3
08:15 1008 29.77 837 24.72 0.3 32.6 99 0.2 32.3
08:20 1008 29.77 837 24.72 0.4 32.7 99 0.2 32.4
08:25 1008 29.77 838 24.75 0.4 32.8 99 0.2 32.4
08:30 1008 29.77 837 24.72 0.4 32.7 99 0.3 32.5
08:35 1008 29.77 837 24.72 0.5 32.9 98 0.2 32.4
08:40 1008 29.77 837 24.72 0.5 32.8 98 0.2 32.4
08:45 1008 29.77 837 24.72 0.6 33 98 0.2 32.4
08:50 1008 29.77 837 24.72 0.6 33 98 0.2 32.4
08:55 1008 29.77 837 24.72 0.6 33.1 97 0.2 32.3
09:00 1008 29.77 837 24.72 0.7 33.2 96 0.1 32.2
09:05 1008 29.77 837 24.72 0.7 33.3 96 0.1 32.2
09:10 1008 29.77 837 24.72 0.8 33.4 95 0.1 32.2
09:15 1008 29.77 837 24.72 0.9 33.6 95 0.2 32.3
09:20 1008 29.77 837 24.72 1 33.7 94 0 32.1
09:25 1008 29.77 837 24.72 1.3 34.3 91 0 32
09:30 1008 29.77 838 24.75 1.4 34.6 90 0 32
09:35 1008 29.77 838 24.75 1.5 34.6 90 -0.1 31.9
09:40 1008 29.77 838 24.75 1.5 34.7 90 0 32
09:45 1009 29.8 838 24.75 1.7 35 91 0.4 32.7
09:50 1009 29.8 838 24.75 2 35.5 90 0.5 32.9
09:55 1009 29.8 838 24.75 1.7 35.1 92 0.5 33
10:00 1009 29.8 838 24.75 1.5 34.8 94 0.6 33.1
10:05 1009 29.8 838 24.75 1.6 34.8 94 0.7 33.2
10:10 1009 29.8 838 24.75 1.5 34.6 94 0.6 33
10:15 1009 29.8 838 24.75 1.5 34.7 94 0.7 33.2
10:20 1009 29.8 838 24.75 1.5 34.7 95 0.8 33.4
10:25 1009 29.8 838 24.75 1.6 34.9 94 0.8 33.5
10:30 1009 29.8 838 24.75 1.6 34.9 94 0.7 33.3
10:35 1009 29.8 838 24.75 1.5 34.7 94 0.6 33.1
10:40 1009 29.8 838 24.75 1.3 34.3 94 0.4 32.7
10:45 1009 29.8 838 24.75 1 33.8 94 0.2 32.4
10:50 1009 29.8 838 24.75 0.9 33.6 95 0.1 32.2
10:55 1009 29.8 838 24.75 0.9 33.6 95 0.2 32.4
11:00 1009 29.8 839 24.78 0.8 33.5 95 0.1 32.2
11:05 1009 29.8 839 24.78 0.9 33.7 95 0.2 32.4
11:10 1009 29.8 839 24.78 0.9 33.6 95 0.2 32.4
11:15 1009 29.8 839 24.78 0.8 33.4 96 0.1 32.3
11:20 1009 29.8 839 24.78 0.6 33.2 96 0 32
11:25 1009 29.8 839 24.78 0.6 33 96 -0.1 31.9
11:30 1009 29.8 839 24.78 0.6 33.1 96 -0 31.9
11:35 1010 29.83 839 24.78 0.5 32.8 96 -0.2 31.7
11:40 1010 29.83 839 24.78 0.3 32.6 96 -0.2 31.6
11:45 1010 29.83 839 24.78 0.4 32.8 96 -0.1 31.7
11:50 1010 29.83 839 24.78 0.5 33 95 -0.1 31.8
11:55 1010 29.83 839 24.78 0.6 33.1 95 -0.2 31.7
12:00 1010 29.83 839 24.78 0.8 33.4 94 -0.1 31.9
12:05 1010 29.83 839 24.78 1 33.8 93 -0 32
12:10 1010 29.83 839 24.78 1.2 34.1 92 -0 32
12:15 1010 29.83 839 24.78 1.2 34.1 92 -0 31.9
12:20 1010 29.83 840 24.81 1.2 34.1 91 -0.1 31.8
12:25 1010 29.83 840 24.81 1.1 34 91 -0.2 31.6
12:30 1011 29.85 840 24.81 1 33.8 91 -0.4 31.3
12:35 1011 29.85 840 24.81 1 33.8 90 -0.4 31.3
12:40 1011 29.85 840 24.81 1.1 34 89 -0.5 31.1
12:45 1011 29.85 840 24.81 1.1 34 89 -0.4 31.2
12:50 1011 29.85 840 24.81 1.2 34.1 90 -0.3 31.5
12:55 1011 29.85 840 24.81 1.2 34.2 91 -0.1 31.9
13:00 1011 29.85 840 24.81 1.3 34.3 92 0 32.1
13:05 1011 29.85 840 24.81 1.3 34.4 91 0.1 32.1
13:10 1011 29.85 840 24.81 1.3 34.3 91 0 32
13:15 1011 29.85 840 24.81 1 33.8 92 -0.2 31.7
13:20 1011 29.85 840 24.81 0.9 33.7 92 -0.2 31.7
13:25 1011 29.85 841 24.83 1 33.8 93 0 32
13:30 1011 29.85 841 24.83 1.2 34.1 93 0.1 32.3
13:35 1011 29.85 841 24.83 1.3 34.3 91 0 32.1
13:40 1012 29.88 841 24.83 1.4 34.5 91 0 32
13:45 1012 29.88 841 24.83 1.1 34 91 -0.2 31.6
13:50 1011 29.85 841 24.83 0.9 33.5 91 -0.4 31.2
13:55 1012 29.88 841 24.83 1 33.8 92 -0.2 31.7
14:00 1012 29.88 841 24.83 1.1 34 90 -0.3 31.5
14:05 1012 29.88 841 24.83 1 33.8 91 -0.3 31.5
14:10 1012 29.88 841 24.83 0.9 33.6 91 -0.4 31.2
14:15 1012 29.88 841 24.83 1 33.8 86 -1.1 30.1
14:20 1012 29.88 841 24.83 1.3 34.4 82 -1.3 29.6
14:25 1012 29.88 841 24.83 1.7 35.1 81 -1.2 29.8
14:30 1012 29.88 842 24.86 1.8 35.2 82 -1 30.2
14:35 1012 29.88 842 24.86 1.9 35.4 82 -0.9 30.4
14:40 1012 29.88 842 24.86 2 35.7 79 -1.3 29.7
14:45 1012 29.88 842 24.86 1.9 35.4 78 -1.6 29.2
14:50 1012 29.88 842 24.86 1.9 35.5 83 -0.6 30.9
14:55 1012 29.88 842 24.86 2.1 35.8 83 -0.5 31
15:00 1012 29.88 842 24.86 2.2 35.9 80 -1 30.2
15:05 1013 29.91 842 24.86 2.2 36 81 -0.6 30.8
15:10 1013 29.91 842 24.86 2.1 35.8 82 -0.6 31
15:15 1013 29.91 842 24.86 2.1 35.8 81 -0.9 30.4
15:20 1013 29.91 842 24.86 2.4 36.3 79 -0.9 30.3
15:25 1013 29.91 842 24.86 2.6 36.7 74 -1.5 29.3
15:30 1013 29.91 842 24.86 2.7 36.9 73 -1.7 29
15:35 1013 29.91 842 24.86 2.7 36.9 73 -1.6 29.1
15:40 1013 29.91 842 24.86 2.3 36.2 79 -1 30.2
15:45 1013 29.91 842 24.86 2.1 35.7 73 -2.2 28
15:50 1013 29.91 842 24.86 2.6 36.6 71 -2.1 28.2
15:55 1013 29.91 842 24.86 2.8 37.1 72 -1.7 28.9
16:00 1013 29.91 842 24.86 2.9 37.1 70 -2.1 28.3
16:05 1013 29.91 842 24.86 2.9 37.2 68 -2.4 27.6
16:10 1013 29.91 842 24.86 3 37.4 71 -1.8 28.8
16:15 1013 29.91 842 24.86 3.2 37.7 69 -2 28.3
16:20 1013 29.91 843 24.89 3 37.4 70 -2 28.5
16:25 1013 29.91 843 24.89 3.1 37.5 68 -2.2 28
16:30 1014 29.94 843 24.89 3.3 38 69 -1.9 28.6
16:35 1014 29.94 843 24.89 3.4 38.2 68 -1.9 28.6
16:40 1014 29.94 843 24.89 3.5 38.3 65 -2.5 27.6
16:45 1014 29.94 843 24.89 3.5 38.3 63 -2.9 26.7
16:50 1014 29.94 843 24.89 3.4 38.2 66 -2.3 27.9
16:55 1014 29.94 843 24.89 3.3 38 67 -2.2 28
17:00 1014 29.94 843 24.89 3.4 38.1 66 -2.3 27.9
17:05 1014 29.94 843 24.89 3.3 38 67 -2.2 28.1
17:10 1014 29.94 843 24.89 3.4 38.1 65 -2.6 27.3
17:15 1014 29.94 843 24.89 3.5 38.2 63 -2.8 26.9
17:20 1014 29.94 843 24.89 3.4 38.1 64 -2.8 27
17:25 1014 29.94 843 24.89 3.4 38 63 -3 26.6
17:30 1014 29.94 843 24.89 3.4 38.2 63 -2.9 26.7
17:35 1014 29.94 843 24.89 3.4 38.1 61 -3.5 25.7
17:40 1014 29.94 843 24.89 3.2 37.7 63 -3.3 26.1
17:45 1014 29.94 843 24.89 3.2 37.8 64 -2.9 26.7
17:50 1014 29.94 844 24.92 3.3 37.9 63 -3 26.5
17:55 1015 29.97 844 24.92 3.3 38 64 -2.9 26.8
18:00 1015 29.97 844 24.92 3.5 38.2 64 -2.8 27
18:05 1015 29.97 844 24.92 3.5 38.3 64 -2.6 27.2
18:10 1015 29.97 844 24.92 3.4 38.1 65 -2.5 27.6
18:15 1015 29.97 844 24.92 3.4 38 66 -2.5 27.6
18:20 1015 29.97 844 24.92 3.2 37.8 67 -2.3 27.8
18:25 1015 29.97 844 24.92 2.3 36.2 80 -0.8 30.5
18:30 1015 29.97 844 24.92 1 33.8 87 -0.9 30.4
18:35 1015 29.97 844 24.92 0.4 32.7 90 -1.1 30
18:40 1015 29.97 844 24.92 0.2 32.4 91 -1 30.1
18:45 1015 29.97 844 24.92 0.2 32.3 92 -0.9 30.4
18:50 1015 29.97 844 24.92 0.1 32.2 93 -0.9 30.4
18:55 1015 29.97 844 24.92 0.1 32.3 93 -0.9 30.4
19:00 1015 29.97 844 24.92 0.3 32.5 93 -0.8 30.6
19:05 1015 29.97 844 24.92 0.6 33 90 -0.9 30.3
19:10 1015 29.97 844 24.92 0.8 33.4 89 -0.9 30.4
19:15 1015 29.97 845 24.95 1 33.7 87 -0.9 30.3
19:20 1015 29.97 845 24.95 1.1 34 84 -1.2 29.8
19:25 1015 29.97 845 24.95 1.2 34.1 83 -1.4 29.5
19:30 1015 29.97 845 24.95 1.2 34.2 83 -1.4 29.4
19:35 1016 30 845 24.95 1.2 34.2 81 -1.6 29.1
19:40 1016 30 845 24.95 1.3 34.4 82 -1.4 29.5
19:45 1016 30 845 24.95 1.3 34.4 84 -1.1 30.1
19:50 1016 30 845 24.95 0.9 33.6 86 -1.2 29.8
19:55 1016 30 845 24.95 0.6 33.1 88 -1.2 29.8
20:00 1016 30 845 24.95 0.4 32.8 87 -1.5 29.2
20:05 1016 30 845 24.95 0.5 32.8 87 -1.4 29.4
20:10 1016 30 845 24.95 0.5 33 86 -1.6 29.2
20:15 1016 30 845 24.95 0.7 33.3 84 -1.6 29.1
20:20 1016 30 846 24.98 0.9 33.7 82 -1.7 28.9
20:25 1016 30 846 24.98 1.2 34.2 82 -1.6 29.2
20:30 1017 30.03 846 24.98 1.3 34.3 81 -1.6 29.2
20:35 1017 30.03 846 24.98 1.3 34.3 80 -1.8 28.8
20:40 1017 30.03 846 24.98 1.4 34.6 75 -2.5 27.6
20:45 1017 30.03 846 24.98 1.7 35.1 74 -2.3 27.8
20:50 1017 30.03 846 24.98 1.9 35.4 74 -2.2 28.1
20:55 1017 30.03 846 24.98 1.9 35.4 75 -2.1 28.3
21:00 1017 30.03 846 24.98 1.7 35 75 -2.2 28
21:05 1017 30.03 846 24.98 1.6 34.9 75 -2.3 27.8
21:10 1017 30.03 846 24.98 1.7 35.1 76 -2.1 28.2
21:15 1017 30.03 847 25.01 1.8 35.2 74 -2.5 27.6
21:20 1017 30.03 847 25.01 1.7 35.1 74 -2.4 27.7
21:25 1018 30.06 847 25.01 1.7 35.1 74 -2.4 27.8
21:30 1018 30.06 847 25.01 1.7 35 74 -2.4 27.6
21:35 1018 30.06 847 25.01 1.6 35 74 -2.5 27.6
21:40 1018 30.06 847 25.01 1.7 35 75 -2.3 27.8
21:45 1018 30.06 847 25.01 1.7 35.1 74 -2.4 27.7
21:50 1018 30.06 847 25.01 1.7 35.1 75 -2.3 27.9
21:55 1018 30.06 847 25.01 1.6 34.9 77 -2 28.3
22:00 1018 30.06 848 25.04 1.3 34.4 79 -1.9 28.7
22:05 1018 30.06 848 25.04 1.1 34 81 -1.7 28.9
22:10 1018 30.06 848 25.04 1.1 33.9 81 -1.8 28.7
22:15 1019 30.09 848 25.04 1.2 34.1 81 -1.8 28.8
22:20 1019 30.09 848 25.04 1.3 34.4 80 -1.7 28.9
22:25 1019 30.09 848 25.04 1.4 34.5 80 -1.7 28.9
22:30 1019 30.09 848 25.04 1.4 34.5 80 -1.7 29
22:35 1019 30.09 848 25.04 1.3 34.4 80 -1.8 28.8
22:40 1019 30.09 848 25.04 1.4 34.5 80 -1.7 28.9
22:45 1019 30.09 848 25.04 1.3 34.3 79 -1.9 28.6
22:50 1019 30.09 848 25.04 1.2 34.1 80 -1.9 28.5
22:55 1019 30.09 848 25.04 1.2 34.2 79 -2 28.3
23:00 1019 30.09 848 25.04 1.2 34.1 79 -2 28.3
23:05 1019 30.09 848 25.04 1.1 33.9 81 -1.8 28.7
23:10 1019 30.09 848 25.04 0.9 33.6 82 -1.8 28.7
23:15 1019 30.09 848 25.04 0.8 33.4 84 -1.7 28.9
23:20 1019 30.09 848 25.04 0.5 32.9 84 -2 28.4
23:25 1019 30.09 848 25.04 0.4 32.7 83 -2.1 28.1
23:30 1019 30.09 848 25.04 0.4 32.7 83 -2.1 28.2
23:35 1019 30.09 848 25.04 0.4 32.7 83 -2.1 28.1
23:40 1019 30.09 849 25.07 0.5 32.9 83 -2.1 28.2
23:45 1019 30.09 849 25.07 0.6 33 82 -2.2 28
23:50 1019 30.09 849 25.07 0.6 33.2 82 -2.1 28.2
23:55 1019 30.09 849 25.07 0.8 33.4 79 -2.5 27.5
24:00 1020 30.12 849 25.07 0.9 33.7 79 -2.2 28